sensor_id;sensor_type;location;lat;lon;timestamp;P1;durP1;ratioP1;P2;durP2;ratioP2
12072;SDS011;6098;49.004;8.372;2023-08-24T00:09:10;6.56;;;5.54;;
12072;SDS011;6098;49.004;8.372;2023-08-24T00:24:05;6.60;;;5.98;;
12072;SDS011;6098;49.004;8.372;2023-08-24T00:38:57;6.73;;;5.61;;
12072;SDS011;6098;49.004;8.372;2023-08-24T00:53:50;5.85;;;5.25;;
12072;SDS011;6098;49.004;8.372;2023-08-24T01:08:44;7.80;;;5.68;;
12072;SDS011;6098;49.004;8.372;2023-08-24T01:23:43;7.28;;;6.37;;
12072;SDS011;6098;49.004;8.372;2023-08-24T01:38:34;9.61;;;6.35;;
12072;SDS011;6098;49.004;8.372;2023-08-24T01:53:27;6.20;;;5.41;;
12072;SDS011;6098;49.004;8.372;2023-08-24T02:08:21;7.80;;;6.54;;
12072;SDS011;6098;49.004;8.372;2023-08-24T02:23:13;6.81;;;5.59;;
12072;SDS011;6098;49.004;8.372;2023-08-24T02:38:05;6.36;;;5.65;;
12072;SDS011;6098;49.004;8.372;2023-08-24T02:52:58;7.25;;;5.85;;
12072;SDS011;6098;49.004;8.372;2023-08-24T03:07:50;8.02;;;5.81;;
12072;SDS011;6098;49.004;8.372;2023-08-24T03:22:45;6.44;;;5.81;;
12072;SDS011;6098;49.004;8.372;2023-08-24T03:37:39;6.69;;;6.04;;
12072;SDS011;6098;49.004;8.372;2023-08-24T03:52:31;6.60;;;6.00;;
12072;SDS011;6098;49.004;8.372;2023-08-24T04:07:24;6.84;;;5.57;;
12072;SDS011;6098;49.004;8.372;2023-08-24T04:22:21;8.19;;;5.99;;
12072;SDS011;6098;49.004;8.372;2023-08-24T04:37:12;7.37;;;6.43;;
12072;SDS011;6098;49.004;8.372;2023-08-24T04:52:08;8.31;;;6.19;;
12072;SDS011;6098;49.004;8.372;2023-08-24T05:06:59;6.28;;;5.64;;
12072;SDS011;6098;49.004;8.372;2023-08-24T05:21:54;7.60;;;6.62;;
12072;SDS011;6098;49.004;8.372;2023-08-24T05:36:47;6.72;;;6.03;;
12072;SDS011;6098;49.004;8.372;2023-08-24T05:51:41;7.37;;;5.95;;
12072;SDS011;6098;49.004;8.372;2023-08-24T06:06:33;6.20;;;5.60;;
12072;SDS011;6098;49.004;8.372;2023-08-24T06:21:32;6.04;;;5.25;;
12072;SDS011;6098;49.004;8.372;2023-08-24T06:36:23;5.19;;;4.43;;
12072;SDS011;6098;49.004;8.372;2023-08-24T06:51:15;4.50;;;4.10;;
12072;SDS011;6098;49.004;8.372;2023-08-24T07:06:09;4.35;;;3.36;;
12072;SDS011;6098;49.004;8.372;2023-08-24T07:21:03;4.36;;;3.28;;
12072;SDS011;6098;49.004;8.372;2023-08-24T07:35:56;3.50;;;3.20;;
12072;SDS011;6098;49.004;8.372;2023-08-24T07:50:49;4.56;;;3.22;;
12072;SDS011;6098;49.004;8.372;2023-08-24T08:05:43;5.00;;;3.40;;
12072;SDS011;6098;49.004;8.372;2023-08-24T08:20:43;3.43;;;3.13;;
12072;SDS011;6098;49.004;8.372;2023-08-24T08:35:38;4.47;;;3.47;;
12072;SDS011;6098;49.004;8.372;2023-08-24T08:50:32;7.60;;;3.46;;
12072;SDS011;6098;49.004;8.372;2023-08-24T09:05:26;5.30;;;3.23;;
12072;SDS011;6098;49.004;8.372;2023-08-24T09:20:19;6.09;;;3.89;;
12072;SDS011;6098;49.004;8.372;2023-08-24T09:35:13;5.21;;;4.16;;
12072;SDS011;6098;49.004;8.372;2023-08-24T09:50:07;4.71;;;4.04;;
12072;SDS011;6098;49.004;8.372;2023-08-24T10:05:01;5.26;;;4.71;;
12072;SDS011;6098;49.004;8.372;2023-08-24T10:19:58;6.97;;;4.73;;
12072;SDS011;6098;49.004;8.372;2023-08-24T10:34:57;9.04;;;4.78;;
12072;SDS011;6098;49.004;8.372;2023-08-24T11:05:07;6.33;;;5.00;;
12072;SDS011;6098;49.004;8.372;2023-08-24T11:20:07;6.00;;;5.17;;
12072;SDS011;6098;49.004;8.372;2023-08-24T11:35:04;6.30;;;5.02;;
12072;SDS011;6098;49.004;8.372;2023-08-24T11:49:59;6.53;;;4.77;;
12072;SDS011;6098;49.004;8.372;2023-08-24T12:04:54;5.51;;;5.08;;
12072;SDS011;6098;49.004;8.372;2023-08-24T12:20:05;6.33;;;5.69;;
12072;SDS011;6098;49.004;8.372;2023-08-24T12:34:59;6.70;;;5.79;;
12072;SDS011;6098;49.004;8.372;2023-08-24T12:49:53;6.30;;;5.69;;
12072;SDS011;6098;49.004;8.372;2023-08-24T13:04:47;10.73;;;5.59;;
12072;SDS011;6098;49.004;8.372;2023-08-24T13:19:42;6.81;;;5.90;;
12072;SDS011;6098;49.004;8.372;2023-08-24T13:34:36;7.10;;;5.62;;
12072;SDS011;6098;49.004;8.372;2023-08-24T13:49:32;6.99;;;5.54;;
12072;SDS011;6098;49.004;8.372;2023-08-24T14:04:24;8.02;;;5.68;;
12072;SDS011;6098;49.004;8.372;2023-08-24T14:19:18;12.61;;;5.71;;
12072;SDS011;6098;49.004;8.372;2023-08-24T14:34:03;12.70;;;8.94;;
12072;SDS011;6098;49.004;8.372;2023-08-24T14:48:57;10.32;;;8.83;;
12072;SDS011;6098;49.004;8.372;2023-08-24T15:03:50;11.66;;;7.86;;
12072;SDS011;6098;49.004;8.372;2023-08-24T15:18:42;9.24;;;8.17;;
12072;SDS011;6098;49.004;8.372;2023-08-24T15:33:38;7.84;;;6.81;;
12072;SDS011;6098;49.004;8.372;2023-08-24T15:48:35;7.83;;;6.59;;
12072;SDS011;6098;49.004;8.372;2023-08-24T16:03:28;9.71;;;7.70;;
12072;SDS011;6098;49.004;8.372;2023-08-24T16:18:22;8.19;;;7.20;;
12072;SDS011;6098;49.004;8.372;2023-08-24T16:33:16;9.61;;;7.40;;
12072;SDS011;6098;49.004;8.372;2023-08-24T16:48:10;8.00;;;7.24;;
12072;SDS011;6098;49.004;8.372;2023-08-24T17:03:01;11.48;;;8.57;;
12072;SDS011;6098;49.004;8.372;2023-08-24T17:17:55;9.47;;;8.20;;
12072;SDS011;6098;49.004;8.372;2023-08-24T17:32:47;8.04;;;6.99;;
12072;SDS011;6098;49.004;8.372;2023-08-24T17:47:38;12.16;;;8.53;;
12072;SDS011;6098;49.004;8.372;2023-08-24T18:02:32;11.19;;;8.14;;
12072;SDS011;6098;49.004;8.372;2023-08-24T18:17:24;9.90;;;8.64;;
12072;SDS011;6098;49.004;8.372;2023-08-24T18:32:16;13.16;;;9.58;;
12072;SDS011;6098;49.004;8.372;2023-08-24T18:47:09;11.90;;;10.32;;
12072;SDS011;6098;49.004;8.372;2023-08-24T19:02:01;12.62;;;10.84;;
12072;SDS011;6098;49.004;8.372;2023-08-24T19:16:54;12.68;;;10.58;;
12072;SDS011;6098;49.004;8.372;2023-08-24T19:31:45;12.82;;;11.52;;
12072;SDS011;6098;49.004;8.372;2023-08-24T19:46:38;10.73;;;9.73;;
12072;SDS011;6098;49.004;8.372;2023-08-24T20:01:32;10.29;;;9.38;;
12072;SDS011;6098;49.004;8.372;2023-08-24T20:16:26;10.19;;;8.69;;
12072;SDS011;6098;49.004;8.372;2023-08-24T20:31:20;10.32;;;8.98;;
12072;SDS011;6098;49.004;8.372;2023-08-24T20:46:15;10.36;;;9.29;;
12072;SDS011;6098;49.004;8.372;2023-08-24T21:01:08;12.85;;;11.59;;
12072;SDS011;6098;49.004;8.372;2023-08-24T21:16:03;13.23;;;10.73;;
12072;SDS011;6098;49.004;8.372;2023-08-24T21:30:59;10.18;;;9.15;;
12072;SDS011;6098;49.004;8.372;2023-08-24T21:45:54;11.45;;;9.79;;
12072;SDS011;6098;49.004;8.372;2023-08-24T22:00:57;12.07;;;10.25;;
12072;SDS011;6098;49.004;8.372;2023-08-24T22:15:43;11.99;;;10.80;;
12072;SDS011;6098;49.004;8.372;2023-08-24T22:30:37;12.54;;;10.77;;
12072;SDS011;6098;49.004;8.372;2023-08-24T22:45:36;11.70;;;10.51;;
12072;SDS011;6098;49.004;8.372;2023-08-24T23:00:32;12.21;;;10.75;;
12072;SDS011;6098;49.004;8.372;2023-08-24T23:15:24;11.97;;;10.81;;
12072;SDS011;6098;49.004;8.372;2023-08-24T23:30:19;15.20;;;11.41;;
12072;SDS011;6098;49.004;8.372;2023-08-24T23:45:12;13.76;;;11.00;;
